sensor_id;sensor_type;location;lat;lon;timestamp;P1;durP1;ratioP1;P2;durP2;ratioP2
1416;SDS011;703;51.162;13.574;2023-04-08T00:00:36;60.83;;;26.73;;
1416;SDS011;703;51.162;13.574;2023-04-08T00:03:01;65.57;;;28.53;;
1416;SDS011;703;51.162;13.574;2023-04-08T00:05:27;65.43;;;30.30;;
1416;SDS011;703;51.162;13.574;2023-04-08T00:07:53;56.50;;;23.77;;
1416;SDS011;703;51.162;13.574;2023-04-08T00:10:19;62.40;;;25.07;;
1416;SDS011;703;51.162;13.574;2023-04-08T00:12:46;55.43;;;24.23;;
1416;SDS011;703;51.162;13.574;2023-04-08T00:15:12;60.03;;;25.33;;
1416;SDS011;703;51.162;13.574;2023-04-08T00:17:38;58.43;;;25.60;;
1416;SDS011;703;51.162;13.574;2023-04-08T00:20:04;59.83;;;26.30;;
1416;SDS011;703;51.162;13.574;2023-04-08T00:22:30;55.17;;;22.80;;
1416;SDS011;703;51.162;13.574;2023-04-08T00:24:56;58.93;;;24.47;;
1416;SDS011;703;51.162;13.574;2023-04-08T00:27:22;57.70;;;25.30;;
1416;SDS011;703;51.162;13.574;2023-04-08T00:29:52;56.07;;;24.50;;
1416;SDS011;703;51.162;13.574;2023-04-08T00:32:18;57.23;;;24.40;;
1416;SDS011;703;51.162;13.574;2023-04-08T00:34:43;58.63;;;24.13;;
1416;SDS011;703;51.162;13.574;2023-04-08T00:37:09;60.27;;;25.60;;
1416;SDS011;703;51.162;13.574;2023-04-08T00:39:36;58.93;;;23.17;;
1416;SDS011;703;51.162;13.574;2023-04-08T00:42:02;57.97;;;23.17;;
1416;SDS011;703;51.162;13.574;2023-04-08T00:44:28;56.30;;;22.33;;
1416;SDS011;703;51.162;13.574;2023-04-08T00:46:53;57.43;;;23.90;;
1416;SDS011;703;51.162;13.574;2023-04-08T00:49:20;58.30;;;23.43;;
1416;SDS011;703;51.162;13.574;2023-04-08T00:51:45;55.63;;;21.43;;
1416;SDS011;703;51.162;13.574;2023-04-08T00:54:11;53.77;;;21.23;;
1416;SDS011;703;51.162;13.574;2023-04-08T00:56:37;52.03;;;21.10;;
1416;SDS011;703;51.162;13.574;2023-04-08T00:59:03;56.60;;;21.80;;
1416;SDS011;703;51.162;13.574;2023-04-08T01:01:42;53.63;;;19.30;;
1416;SDS011;703;51.162;13.574;2023-04-08T01:04:38;50.97;;;19.17;;
1416;SDS011;703;51.162;13.574;2023-04-08T01:07:33;53.00;;;20.50;;
1416;SDS011;703;51.162;13.574;2023-04-08T01:10:06;54.00;;;20.30;;
1416;SDS011;703;51.162;13.574;2023-04-08T01:12:39;50.13;;;19.27;;
1416;SDS011;703;51.162;13.574;2023-04-08T01:15:07;50.40;;;18.10;;
1416;SDS011;703;51.162;13.574;2023-04-08T01:17:35;51.87;;;18.03;;
1416;SDS011;703;51.162;13.574;2023-04-08T01:20:02;50.87;;;18.87;;
1416;SDS011;703;51.162;13.574;2023-04-08T01:25:33;55.07;;;19.53;;
1416;SDS011;703;51.162;13.574;2023-04-08T01:28:03;55.27;;;21.87;;
1416;SDS011;703;51.162;13.574;2023-04-08T01:30:31;54.10;;;20.90;;
1416;SDS011;703;51.162;13.574;2023-04-08T01:32:58;56.67;;;21.30;;
1416;SDS011;703;51.162;13.574;2023-04-08T01:35:26;52.40;;;20.33;;
1416;SDS011;703;51.162;13.574;2023-04-08T01:37:52;54.50;;;19.87;;
1416;SDS011;703;51.162;13.574;2023-04-08T01:40:18;57.17;;;20.27;;
1416;SDS011;703;51.162;13.574;2023-04-08T01:42:45;57.83;;;20.43;;
1416;SDS011;703;51.162;13.574;2023-04-08T01:45:12;53.77;;;20.47;;
1416;SDS011;703;51.162;13.574;2023-04-08T01:47:39;55.33;;;19.00;;
1416;SDS011;703;51.162;13.574;2023-04-08T01:50:06;63.47;;;24.03;;
1416;SDS011;703;51.162;13.574;2023-04-08T01:52:34;57.40;;;21.00;;
1416;SDS011;703;51.162;13.574;2023-04-08T01:55:01;56.67;;;21.40;;
1416;SDS011;703;51.162;13.574;2023-04-08T01:57:27;56.00;;;20.30;;
1416;SDS011;703;51.162;13.574;2023-04-08T01:59:58;59.10;;;21.33;;
1416;SDS011;703;51.162;13.574;2023-04-08T02:02:26;56.17;;;19.30;;
1416;SDS011;703;51.162;13.574;2023-04-08T02:04:53;56.40;;;18.80;;
1416;SDS011;703;51.162;13.574;2023-04-08T02:07:19;54.80;;;19.47;;
1416;SDS011;703;51.162;13.574;2023-04-08T02:09:45;53.03;;;19.43;;
1416;SDS011;703;51.162;13.574;2023-04-08T02:12:11;56.80;;;19.60;;
1416;SDS011;703;51.162;13.574;2023-04-08T02:14:37;58.23;;;22.60;;
1416;SDS011;703;51.162;13.574;2023-04-08T02:17:20;57.43;;;20.77;;
1416;SDS011;703;51.162;13.574;2023-04-08T02:22:31;54.57;;;18.90;;
1416;SDS011;703;51.162;13.574;2023-04-08T02:25:24;50.43;;;17.70;;
1416;SDS011;703;51.162;13.574;2023-04-08T02:27:51;52.20;;;16.23;;
1416;SDS011;703;51.162;13.574;2023-04-08T02:30:18;52.27;;;18.50;;
1416;SDS011;703;51.162;13.574;2023-04-08T02:32:45;49.37;;;16.60;;
1416;SDS011;703;51.162;13.574;2023-04-08T02:35:11;51.97;;;18.47;;
1416;SDS011;703;51.162;13.574;2023-04-08T02:37:39;55.27;;;20.83;;
1416;SDS011;703;51.162;13.574;2023-04-08T02:40:26;49.27;;;16.27;;
1416;SDS011;703;51.162;13.574;2023-04-08T02:42:52;48.07;;;15.87;;
1416;SDS011;703;51.162;13.574;2023-04-08T02:45:18;56.20;;;17.47;;
1416;SDS011;703;51.162;13.574;2023-04-08T02:47:44;50.60;;;17.20;;
1416;SDS011;703;51.162;13.574;2023-04-08T02:50:10;48.77;;;16.00;;
1416;SDS011;703;51.162;13.574;2023-04-08T02:52:36;49.13;;;15.57;;
1416;SDS011;703;51.162;13.574;2023-04-08T02:55:02;49.13;;;17.53;;
1416;SDS011;703;51.162;13.574;2023-04-08T02:57:30;47.70;;;15.53;;
1416;SDS011;703;51.162;13.574;2023-04-08T02:59:56;48.03;;;15.30;;
1416;SDS011;703;51.162;13.574;2023-04-08T03:02:22;48.93;;;16.30;;
1416;SDS011;703;51.162;13.574;2023-04-08T03:04:47;48.63;;;15.53;;
1416;SDS011;703;51.162;13.574;2023-04-08T03:07:13;51.13;;;16.63;;
1416;SDS011;703;51.162;13.574;2023-04-08T03:09:38;49.30;;;16.13;;
1416;SDS011;703;51.162;13.574;2023-04-08T03:12:04;47.33;;;14.93;;
1416;SDS011;703;51.162;13.574;2023-04-08T03:14:29;47.30;;;15.90;;
1416;SDS011;703;51.162;13.574;2023-04-08T03:16:55;54.47;;;18.63;;
1416;SDS011;703;51.162;13.574;2023-04-08T03:19:21;51.60;;;16.77;;
1416;SDS011;703;51.162;13.574;2023-04-08T03:21:47;48.70;;;15.60;;
1416;SDS011;703;51.162;13.574;2023-04-08T03:24:13;54.17;;;15.83;;
1416;SDS011;703;51.162;13.574;2023-04-08T03:26:39;47.23;;;15.27;;
1416;SDS011;703;51.162;13.574;2023-04-08T03:29:04;46.27;;;15.00;;
1416;SDS011;703;51.162;13.574;2023-04-08T03:31:31;50.80;;;15.63;;
1416;SDS011;703;51.162;13.574;2023-04-08T03:33:56;46.77;;;14.60;;
1416;SDS011;703;51.162;13.574;2023-04-08T03:36:22;45.90;;;13.40;;
1416;SDS011;703;51.162;13.574;2023-04-08T03:38:47;45.97;;;13.27;;
1416;SDS011;703;51.162;13.574;2023-04-08T03:41:13;48.23;;;14.17;;
1416;SDS011;703;51.162;13.574;2023-04-08T03:43:40;50.80;;;15.20;;
1416;SDS011;703;51.162;13.574;2023-04-08T03:46:06;45.87;;;13.50;;
1416;SDS011;703;51.162;13.574;2023-04-08T03:48:31;47.40;;;14.20;;
1416;SDS011;703;51.162;13.574;2023-04-08T03:50:57;45.60;;;12.43;;
1416;SDS011;703;51.162;13.574;2023-04-08T03:53:23;43.50;;;12.70;;
1416;SDS011;703;51.162;13.574;2023-04-08T03:55:51;47.00;;;14.20;;
1416;SDS011;703;51.162;13.574;2023-04-08T03:58:17;43.67;;;11.57;;
1416;SDS011;703;51.162;13.574;2023-04-08T04:00:43;46.67;;;15.00;;
1416;SDS011;703;51.162;13.574;2023-04-08T04:03:09;50.37;;;15.80;;
1416;SDS011;703;51.162;13.574;2023-04-08T04:05:37;49.63;;;15.30;;
1416;SDS011;703;51.162;13.574;2023-04-08T04:08:03;44.87;;;13.50;;
1416;SDS011;703;51.162;13.574;2023-04-08T04:10:29;48.60;;;14.63;;
1416;SDS011;703;51.162;13.574;2023-04-08T04:12:55;45.80;;;13.33;;
1416;SDS011;703;51.162;13.574;2023-04-08T04:15:20;46.43;;;14.67;;
1416;SDS011;703;51.162;13.574;2023-04-08T04:17:47;46.77;;;14.60;;
1416;SDS011;703;51.162;13.574;2023-04-08T04:20:14;46.83;;;14.80;;
1416;SDS011;703;51.162;13.574;2023-04-08T04:22:40;46.20;;;14.53;;
1416;SDS011;703;51.162;13.574;2023-04-08T04:25:06;47.30;;;14.73;;
1416;SDS011;703;51.162;13.574;2023-04-08T04:27:32;48.03;;;13.77;;
1416;SDS011;703;51.162;13.574;2023-04-08T04:29:59;51.63;;;16.57;;
1416;SDS011;703;51.162;13.574;2023-04-08T04:32:25;52.40;;;15.93;;
1416;SDS011;703;51.162;13.574;2023-04-08T04:34:50;49.80;;;16.30;;
1416;SDS011;703;51.162;13.574;2023-04-08T04:37:16;57.93;;;16.23;;
1416;SDS011;703;51.162;13.574;2023-04-08T04:39:42;48.33;;;14.13;;
1416;SDS011;703;51.162;13.574;2023-04-08T04:42:07;47.77;;;14.87;;
1416;SDS011;703;51.162;13.574;2023-04-08T04:44:33;49.57;;;14.70;;
1416;SDS011;703;51.162;13.574;2023-04-08T04:46:58;49.10;;;15.80;;
1416;SDS011;703;51.162;13.574;2023-04-08T04:49:24;50.53;;;16.53;;
1416;SDS011;703;51.162;13.574;2023-04-08T04:51:50;48.37;;;16.10;;
1416;SDS011;703;51.162;13.574;2023-04-08T04:54:15;47.67;;;15.70;;
1416;SDS011;703;51.162;13.574;2023-04-08T04:56:42;54.80;;;15.57;;
1416;SDS011;703;51.162;13.574;2023-04-08T04:59:09;50.00;;;14.90;;
1416;SDS011;703;51.162;13.574;2023-04-08T05:01:35;47.80;;;15.80;;
1416;SDS011;703;51.162;13.574;2023-04-08T05:04:02;46.57;;;14.80;;
1416;SDS011;703;51.162;13.574;2023-04-08T05:06:28;54.60;;;15.60;;
1416;SDS011;703;51.162;13.574;2023-04-08T05:08:55;48.37;;;15.43;;
1416;SDS011;703;51.162;13.574;2023-04-08T05:11:21;49.10;;;14.13;;
1416;SDS011;703;51.162;13.574;2023-04-08T05:13:47;49.70;;;15.57;;
1416;SDS011;703;51.162;13.574;2023-04-08T05:16:13;51.73;;;16.47;;
1416;SDS011;703;51.162;13.574;2023-04-08T05:18:40;49.73;;;17.23;;
1416;SDS011;703;51.162;13.574;2023-04-08T05:21:08;48.37;;;14.97;;
1416;SDS011;703;51.162;13.574;2023-04-08T05:23:35;51.43;;;16.53;;
1416;SDS011;703;51.162;13.574;2023-04-08T05:26:01;49.37;;;15.90;;
1416;SDS011;703;51.162;13.574;2023-04-08T05:28:27;54.20;;;19.50;;
1416;SDS011;703;51.162;13.574;2023-04-08T05:30:53;48.97;;;15.70;;
1416;SDS011;703;51.162;13.574;2023-04-08T05:33:19;49.60;;;16.10;;
1416;SDS011;703;51.162;13.574;2023-04-08T05:35:45;49.40;;;16.00;;
1416;SDS011;703;51.162;13.574;2023-04-08T05:38:10;55.17;;;17.63;;
1416;SDS011;703;51.162;13.574;2023-04-08T05:40:36;60.60;;;20.33;;
1416;SDS011;703;51.162;13.574;2023-04-08T05:43:02;64.70;;;20.63;;
1416;SDS011;703;51.162;13.574;2023-04-08T05:45:28;58.97;;;20.60;;
1416;SDS011;703;51.162;13.574;2023-04-08T05:47:54;62.03;;;21.13;;
1416;SDS011;703;51.162;13.574;2023-04-08T05:50:20;56.67;;;20.90;;
1416;SDS011;703;51.162;13.574;2023-04-08T05:52:46;56.27;;;20.23;;
1416;SDS011;703;51.162;13.574;2023-04-08T05:55:12;55.70;;;21.73;;
1416;SDS011;703;51.162;13.574;2023-04-08T05:57:39;58.60;;;21.10;;
1416;SDS011;703;51.162;13.574;2023-04-08T06:00:05;63.60;;;23.47;;
1416;SDS011;703;51.162;13.574;2023-04-08T06:02:32;63.60;;;24.67;;
1416;SDS011;703;51.162;13.574;2023-04-08T06:04:58;59.60;;;21.10;;
1416;SDS011;703;51.162;13.574;2023-04-08T06:07:24;66.23;;;25.67;;
1416;SDS011;703;51.162;13.574;2023-04-08T06:09:50;66.53;;;24.03;;
1416;SDS011;703;51.162;13.574;2023-04-08T06:12:16;61.37;;;24.07;;
1416;SDS011;703;51.162;13.574;2023-04-08T06:14:42;60.20;;;22.90;;
1416;SDS011;703;51.162;13.574;2023-04-08T06:17:08;66.33;;;24.63;;
1416;SDS011;703;51.162;13.574;2023-04-08T06:19:33;62.13;;;22.33;;
1416;SDS011;703;51.162;13.574;2023-04-08T06:21:59;57.10;;;21.50;;
1416;SDS011;703;51.162;13.574;2023-04-08T06:24:26;59.33;;;23.90;;
1416;SDS011;703;51.162;13.574;2023-04-08T06:26:53;57.47;;;22.77;;
1416;SDS011;703;51.162;13.574;2023-04-08T06:29:20;66.17;;;25.40;;
1416;SDS011;703;51.162;13.574;2023-04-08T06:31:46;58.80;;;23.60;;
1416;SDS011;703;51.162;13.574;2023-04-08T06:34:12;69.80;;;28.63;;
1416;SDS011;703;51.162;13.574;2023-04-08T06:36:38;69.20;;;28.43;;
1416;SDS011;703;51.162;13.574;2023-04-08T06:39:04;62.67;;;25.90;;
1416;SDS011;703;51.162;13.574;2023-04-08T06:41:30;61.00;;;25.27;;
1416;SDS011;703;51.162;13.574;2023-04-08T06:43:56;61.30;;;25.40;;
1416;SDS011;703;51.162;13.574;2023-04-08T06:46:22;56.87;;;22.27;;
1416;SDS011;703;51.162;13.574;2023-04-08T06:48:48;62.07;;;27.37;;
1416;SDS011;703;51.162;13.574;2023-04-08T06:51:14;58.60;;;25.40;;
1416;SDS011;703;51.162;13.574;2023-04-08T06:53:41;61.07;;;24.10;;
1416;SDS011;703;51.162;13.574;2023-04-08T06:56:07;64.20;;;27.43;;
1416;SDS011;703;51.162;13.574;2023-04-08T06:58:33;72.37;;;32.27;;
1416;SDS011;703;51.162;13.574;2023-04-08T07:00:59;62.20;;;25.00;;
1416;SDS011;703;51.162;13.574;2023-04-08T07:03:25;60.87;;;27.27;;
1416;SDS011;703;51.162;13.574;2023-04-08T07:05:51;62.33;;;25.30;;
1416;SDS011;703;51.162;13.574;2023-04-08T07:08:17;62.57;;;27.10;;
1416;SDS011;703;51.162;13.574;2023-04-08T07:10:42;61.57;;;26.90;;
1416;SDS011;703;51.162;13.574;2023-04-08T07:13:08;62.60;;;28.07;;
1416;SDS011;703;51.162;13.574;2023-04-08T07:15:34;62.37;;;29.37;;
1416;SDS011;703;51.162;13.574;2023-04-08T07:18:00;63.90;;;25.80;;
1416;SDS011;703;51.162;13.574;2023-04-08T07:20:26;63.10;;;28.30;;
1416;SDS011;703;51.162;13.574;2023-04-08T07:22:52;62.97;;;26.20;;
1416;SDS011;703;51.162;13.574;2023-04-08T07:25:17;63.60;;;28.03;;
1416;SDS011;703;51.162;13.574;2023-04-08T07:27:43;63.40;;;29.27;;
1416;SDS011;703;51.162;13.574;2023-04-08T07:30:08;61.40;;;26.33;;
1416;SDS011;703;51.162;13.574;2023-04-08T07:32:34;61.60;;;27.70;;
1416;SDS011;703;51.162;13.574;2023-04-08T07:35:00;59.90;;;26.50;;
1416;SDS011;703;51.162;13.574;2023-04-08T07:37:26;61.90;;;26.93;;
1416;SDS011;703;51.162;13.574;2023-04-08T07:39:52;60.97;;;29.20;;
1416;SDS011;703;51.162;13.574;2023-04-08T07:42:18;53.67;;;22.60;;
1416;SDS011;703;51.162;13.574;2023-04-08T07:44:46;57.20;;;25.73;;
1416;SDS011;703;51.162;13.574;2023-04-08T07:47:12;58.03;;;26.10;;
1416;SDS011;703;51.162;13.574;2023-04-08T07:49:38;57.33;;;26.73;;
1416;SDS011;703;51.162;13.574;2023-04-08T07:52:04;58.03;;;26.23;;
1416;SDS011;703;51.162;13.574;2023-04-08T07:54:30;59.30;;;22.53;;
1416;SDS011;703;51.162;13.574;2023-04-08T07:56:58;53.30;;;22.00;;
1416;SDS011;703;51.162;13.574;2023-04-08T07:59:24;55.23;;;23.10;;
1416;SDS011;703;51.162;13.574;2023-04-08T08:01:49;56.90;;;24.87;;
1416;SDS011;703;51.162;13.574;2023-04-08T08:04:15;49.77;;;19.57;;
1416;SDS011;703;51.162;13.574;2023-04-08T08:06:40;50.97;;;20.63;;
1416;SDS011;703;51.162;13.574;2023-04-08T08:09:06;49.57;;;20.60;;
1416;SDS011;703;51.162;13.574;2023-04-08T08:11:31;47.80;;;16.10;;
1416;SDS011;703;51.162;13.574;2023-04-08T08:13:57;46.20;;;16.93;;
1416;SDS011;703;51.162;13.574;2023-04-08T08:16:22;45.70;;;16.30;;
1416;SDS011;703;51.162;13.574;2023-04-08T08:18:51;44.07;;;13.90;;
1416;SDS011;703;51.162;13.574;2023-04-08T08:21:17;42.60;;;13.70;;
1416;SDS011;703;51.162;13.574;2023-04-08T08:23:42;44.10;;;15.00;;
1416;SDS011;703;51.162;13.574;2023-04-08T08:26:08;43.17;;;14.40;;
1416;SDS011;703;51.162;13.574;2023-04-08T08:28:34;43.13;;;13.80;;
1416;SDS011;703;51.162;13.574;2023-04-08T08:31:00;41.03;;;12.17;;
1416;SDS011;703;51.162;13.574;2023-04-08T08:33:26;41.10;;;12.20;;
1416;SDS011;703;51.162;13.574;2023-04-08T08:35:52;41.77;;;12.80;;
1416;SDS011;703;51.162;13.574;2023-04-08T08:38:17;41.33;;;11.60;;
1416;SDS011;703;51.162;13.574;2023-04-08T08:40:43;41.90;;;11.33;;
1416;SDS011;703;51.162;13.574;2023-04-08T08:43:09;39.60;;;11.40;;
1416;SDS011;703;51.162;13.574;2023-04-08T08:45:39;39.20;;;11.00;;
1416;SDS011;703;51.162;13.574;2023-04-08T08:48:05;38.97;;;10.70;;
1416;SDS011;703;51.162;13.574;2023-04-08T08:50:32;40.13;;;10.67;;
1416;SDS011;703;51.162;13.574;2023-04-08T08:52:58;40.60;;;10.93;;
1416;SDS011;703;51.162;13.574;2023-04-08T08:55:24;41.57;;;11.37;;
1416;SDS011;703;51.162;13.574;2023-04-08T08:57:50;40.17;;;12.27;;
1416;SDS011;703;51.162;13.574;2023-04-08T09:00:16;40.13;;;11.00;;
1416;SDS011;703;51.162;13.574;2023-04-08T09:02:42;39.50;;;11.20;;
1416;SDS011;703;51.162;13.574;2023-04-08T09:05:08;41.80;;;13.03;;
1416;SDS011;703;51.162;13.574;2023-04-08T09:07:37;41.40;;;13.30;;
1416;SDS011;703;51.162;13.574;2023-04-08T09:10:06;39.97;;;11.50;;
1416;SDS011;703;51.162;13.574;2023-04-08T09:12:32;40.47;;;12.03;;
1416;SDS011;703;51.162;13.574;2023-04-08T09:17:36;40.00;;;12.10;;
1416;SDS011;703;51.162;13.574;2023-04-08T09:22:33;42.40;;;14.57;;
1416;SDS011;703;51.162;13.574;2023-04-08T09:24:59;41.10;;;12.93;;
1416;SDS011;703;51.162;13.574;2023-04-08T09:27:34;41.50;;;13.80;;
1416;SDS011;703;51.162;13.574;2023-04-08T09:30:13;40.40;;;12.90;;
1416;SDS011;703;51.162;13.574;2023-04-08T09:32:55;41.27;;;13.83;;
1416;SDS011;703;51.162;13.574;2023-04-08T09:35:22;40.60;;;12.57;;
1416;SDS011;703;51.162;13.574;2023-04-08T09:37:49;41.80;;;13.30;;
1416;SDS011;703;51.162;13.574;2023-04-08T09:40:15;39.20;;;11.90;;
1416;SDS011;703;51.162;13.574;2023-04-08T09:42:45;41.87;;;14.07;;
1416;SDS011;703;51.162;13.574;2023-04-08T09:45:14;41.67;;;14.90;;
1416;SDS011;703;51.162;13.574;2023-04-08T09:47:56;39.90;;;12.93;;
1416;SDS011;703;51.162;13.574;2023-04-08T09:50:31;43.00;;;14.27;;
1416;SDS011;703;51.162;13.574;2023-04-08T09:53:12;40.50;;;12.53;;
1416;SDS011;703;51.162;13.574;2023-04-08T09:55:43;40.47;;;14.13;;
1416;SDS011;703;51.162;13.574;2023-04-08T09:58:14;41.60;;;15.37;;
1416;SDS011;703;51.162;13.574;2023-04-08T10:00:45;40.30;;;12.83;;
1416;SDS011;703;51.162;13.574;2023-04-08T10:06:01;40.53;;;13.53;;
1416;SDS011;703;51.162;13.574;2023-04-08T10:08:27;39.70;;;13.60;;
1416;SDS011;703;51.162;13.574;2023-04-08T10:10:54;41.23;;;15.10;;
1416;SDS011;703;51.162;13.574;2023-04-08T10:13:21;41.40;;;14.53;;
1416;SDS011;703;51.162;13.574;2023-04-08T10:15:47;42.00;;;14.90;;
1416;SDS011;703;51.162;13.574;2023-04-08T10:23:11;41.13;;;15.40;;
1416;SDS011;703;51.162;13.574;2023-04-08T10:30:45;40.13;;;14.73;;
1416;SDS011;703;51.162;13.574;2023-04-08T10:33:16;40.53;;;15.33;;
1416;SDS011;703;51.162;13.574;2023-04-08T10:35:58;40.50;;;14.60;;
1416;SDS011;703;51.162;13.574;2023-04-08T10:38:39;40.57;;;14.50;;
1416;SDS011;703;51.162;13.574;2023-04-08T10:41:09;41.07;;;15.90;;
1416;SDS011;703;51.162;13.574;2023-04-08T10:43:36;40.50;;;15.57;;
1416;SDS011;703;51.162;13.574;2023-04-08T10:46:02;41.17;;;15.80;;
1416;SDS011;703;51.162;13.574;2023-04-08T10:48:28;41.40;;;15.70;;
1416;SDS011;703;51.162;13.574;2023-04-08T10:50:56;41.10;;;15.70;;
1416;SDS011;703;51.162;13.574;2023-04-08T10:53:36;40.20;;;13.77;;
1416;SDS011;703;51.162;13.574;2023-04-08T10:56:07;41.57;;;15.90;;
1416;SDS011;703;51.162;13.574;2023-04-08T10:58:47;40.63;;;14.40;;
1416;SDS011;703;51.162;13.574;2023-04-08T11:01:19;40.93;;;15.10;;
1416;SDS011;703;51.162;13.574;2023-04-08T11:03:45;42.90;;;16.47;;
1416;SDS011;703;51.162;13.574;2023-04-08T11:06:10;43.13;;;17.10;;
1416;SDS011;703;51.162;13.574;2023-04-08T11:08:37;42.27;;;16.47;;
1416;SDS011;703;51.162;13.574;2023-04-08T11:11:03;42.90;;;16.90;;
1416;SDS011;703;51.162;13.574;2023-04-08T11:13:36;43.50;;;17.80;;
1416;SDS011;703;51.162;13.574;2023-04-08T11:16:03;42.80;;;16.77;;
1416;SDS011;703;51.162;13.574;2023-04-08T11:18:31;41.23;;;14.87;;
1416;SDS011;703;51.162;13.574;2023-04-08T11:20:58;44.00;;;18.33;;
1416;SDS011;703;51.162;13.574;2023-04-08T11:23:25;47.67;;;17.20;;
1416;SDS011;703;51.162;13.574;2023-04-08T11:25:51;41.90;;;16.20;;
1416;SDS011;703;51.162;13.574;2023-04-08T11:28:18;44.53;;;17.03;;
1416;SDS011;703;51.162;13.574;2023-04-08T11:30:45;45.90;;;18.60;;
1416;SDS011;703;51.162;13.574;2023-04-08T11:33:12;44.57;;;18.97;;
1416;SDS011;703;51.162;13.574;2023-04-08T11:35:42;44.60;;;18.53;;
1416;SDS011;703;51.162;13.574;2023-04-08T11:38:08;44.30;;;18.23;;
1416;SDS011;703;51.162;13.574;2023-04-08T11:40:35;46.80;;;20.67;;
1416;SDS011;703;51.162;13.574;2023-04-08T11:43:10;43.93;;;17.80;;
1416;SDS011;703;51.162;13.574;2023-04-08T11:45:39;45.97;;;21.80;;
1416;SDS011;703;51.162;13.574;2023-04-08T11:48:12;43.67;;;17.20;;
1416;SDS011;703;51.162;13.574;2023-04-08T11:50:39;43.00;;;17.10;;
1416;SDS011;703;51.162;13.574;2023-04-08T11:53:18;49.10;;;17.17;;
1416;SDS011;703;51.162;13.574;2023-04-08T11:55:50;44.00;;;17.63;;
1416;SDS011;703;51.162;13.574;2023-04-08T11:58:16;44.63;;;18.17;;
1416;SDS011;703;51.162;13.574;2023-04-08T12:00:41;48.43;;;19.50;;
1416;SDS011;703;51.162;13.574;2023-04-08T12:03:08;44.23;;;18.07;;
1416;SDS011;703;51.162;13.574;2023-04-08T12:05:34;47.73;;;17.33;;
1416;SDS011;703;51.162;13.574;2023-04-08T12:08:00;44.03;;;19.07;;
1416;SDS011;703;51.162;13.574;2023-04-08T12:10:26;45.60;;;19.17;;
1416;SDS011;703;51.162;13.574;2023-04-08T12:12:51;44.37;;;18.20;;
1416;SDS011;703;51.162;13.574;2023-04-08T12:15:17;44.67;;;18.60;;
1416;SDS011;703;51.162;13.574;2023-04-08T12:17:43;45.70;;;20.33;;
1416;SDS011;703;51.162;13.574;2023-04-08T12:20:09;45.90;;;19.73;;
1416;SDS011;703;51.162;13.574;2023-04-08T12:22:35;47.43;;;20.30;;
1416;SDS011;703;51.162;13.574;2023-04-08T12:25:01;46.57;;;20.03;;
1416;SDS011;703;51.162;13.574;2023-04-08T12:27:28;49.00;;;19.90;;
1416;SDS011;703;51.162;13.574;2023-04-08T12:29:54;46.60;;;18.50;;
1416;SDS011;703;51.162;13.574;2023-04-08T12:32:21;47.53;;;20.60;;
1416;SDS011;703;51.162;13.574;2023-04-08T12:34:48;47.30;;;21.20;;
1416;SDS011;703;51.162;13.574;2023-04-08T12:37:13;47.30;;;21.60;;
1416;SDS011;703;51.162;13.574;2023-04-08T12:39:38;46.47;;;20.57;;
1416;SDS011;703;51.162;13.574;2023-04-08T12:42:04;46.63;;;21.40;;
1416;SDS011;703;51.162;13.574;2023-04-08T12:44:29;49.00;;;21.90;;
1416;SDS011;703;51.162;13.574;2023-04-08T12:46:55;51.53;;;23.00;;
1416;SDS011;703;51.162;13.574;2023-04-08T12:49:22;48.83;;;23.50;;
1416;SDS011;703;51.162;13.574;2023-04-08T12:51:48;47.77;;;22.50;;
1416;SDS011;703;51.162;13.574;2023-04-08T12:54:14;47.30;;;21.10;;
1416;SDS011;703;51.162;13.574;2023-04-08T12:56:40;47.73;;;21.30;;
1416;SDS011;703;51.162;13.574;2023-04-08T12:59:07;46.57;;;19.60;;
1416;SDS011;703;51.162;13.574;2023-04-08T13:01:32;47.33;;;20.30;;
1416;SDS011;703;51.162;13.574;2023-04-08T13:03:58;46.90;;;22.27;;
1416;SDS011;703;51.162;13.574;2023-04-08T13:06:24;47.90;;;21.70;;
1416;SDS011;703;51.162;13.574;2023-04-08T13:08:50;47.97;;;21.67;;
1416;SDS011;703;51.162;13.574;2023-04-08T13:11:16;47.03;;;20.87;;
1416;SDS011;703;51.162;13.574;2023-04-08T13:13:41;49.23;;;21.30;;
1416;SDS011;703;51.162;13.574;2023-04-08T13:16:07;47.00;;;19.17;;
1416;SDS011;703;51.162;13.574;2023-04-08T13:18:33;46.20;;;19.63;;
1416;SDS011;703;51.162;13.574;2023-04-08T13:20:59;47.27;;;20.00;;
1416;SDS011;703;51.162;13.574;2023-04-08T13:23:24;47.00;;;19.50;;
1416;SDS011;703;51.162;13.574;2023-04-08T13:25:50;48.07;;;20.80;;
1416;SDS011;703;51.162;13.574;2023-04-08T13:28:15;49.00;;;20.63;;
1416;SDS011;703;51.162;13.574;2023-04-08T13:30:41;48.10;;;19.73;;
1416;SDS011;703;51.162;13.574;2023-04-08T13:33:08;47.50;;;21.13;;
1416;SDS011;703;51.162;13.574;2023-04-08T13:35:33;50.70;;;21.43;;
1416;SDS011;703;51.162;13.574;2023-04-08T13:37:59;49.50;;;21.70;;
1416;SDS011;703;51.162;13.574;2023-04-08T13:40:25;48.70;;;19.77;;
1416;SDS011;703;51.162;13.574;2023-04-08T13:42:51;47.60;;;20.50;;
1416;SDS011;703;51.162;13.574;2023-04-08T13:45:17;48.87;;;20.37;;
1416;SDS011;703;51.162;13.574;2023-04-08T13:47:44;47.93;;;21.80;;
1416;SDS011;703;51.162;13.574;2023-04-08T13:50:09;46.87;;;19.70;;
1416;SDS011;703;51.162;13.574;2023-04-08T13:52:35;47.10;;;20.67;;
1416;SDS011;703;51.162;13.574;2023-04-08T13:55:00;49.00;;;22.40;;
1416;SDS011;703;51.162;13.574;2023-04-08T13:57:26;49.73;;;25.23;;
1416;SDS011;703;51.162;13.574;2023-04-08T13:59:52;46.60;;;21.13;;
1416;SDS011;703;51.162;13.574;2023-04-08T14:02:17;47.27;;;21.50;;
1416;SDS011;703;51.162;13.574;2023-04-08T14:04:43;46.80;;;20.37;;
1416;SDS011;703;51.162;13.574;2023-04-08T14:07:11;46.43;;;20.70;;
1416;SDS011;703;51.162;13.574;2023-04-08T14:09:37;46.83;;;19.60;;
1416;SDS011;703;51.162;13.574;2023-04-08T14:12:03;47.60;;;19.17;;
1416;SDS011;703;51.162;13.574;2023-04-08T14:14:29;45.57;;;18.70;;
1416;SDS011;703;51.162;13.574;2023-04-08T14:16:54;45.70;;;20.27;;
1416;SDS011;703;51.162;13.574;2023-04-08T14:19:20;46.77;;;19.80;;
1416;SDS011;703;51.162;13.574;2023-04-08T14:21:45;45.30;;;19.40;;
1416;SDS011;703;51.162;13.574;2023-04-08T14:24:11;46.93;;;20.47;;
1416;SDS011;703;51.162;13.574;2023-04-08T14:26:36;47.97;;;23.27;;
1416;SDS011;703;51.162;13.574;2023-04-08T14:29:02;49.23;;;25.67;;
1416;SDS011;703;51.162;13.574;2023-04-08T14:31:29;46.30;;;22.37;;
1416;SDS011;703;51.162;13.574;2023-04-08T14:33:56;48.07;;;21.80;;
1416;SDS011;703;51.162;13.574;2023-04-08T14:36:22;46.47;;;21.60;;
1416;SDS011;703;51.162;13.574;2023-04-08T14:38:48;45.93;;;21.47;;
1416;SDS011;703;51.162;13.574;2023-04-08T14:41:14;47.43;;;21.60;;
1416;SDS011;703;51.162;13.574;2023-04-08T14:43:39;47.47;;;21.83;;
1416;SDS011;703;51.162;13.574;2023-04-08T14:46:05;45.77;;;19.40;;
1416;SDS011;703;51.162;13.574;2023-04-08T14:48:31;44.40;;;19.40;;
1416;SDS011;703;51.162;13.574;2023-04-08T14:50:57;43.77;;;18.70;;
1416;SDS011;703;51.162;13.574;2023-04-08T14:53:23;44.50;;;18.53;;
1416;SDS011;703;51.162;13.574;2023-04-08T14:55:49;45.00;;;19.63;;
1416;SDS011;703;51.162;13.574;2023-04-08T14:58:15;47.23;;;20.90;;
1416;SDS011;703;51.162;13.574;2023-04-08T15:00:42;48.10;;;20.60;;
1416;SDS011;703;51.162;13.574;2023-04-08T15:03:09;46.10;;;20.70;;
1416;SDS011;703;51.162;13.574;2023-04-08T15:05:35;47.37;;;19.47;;
1416;SDS011;703;51.162;13.574;2023-04-08T15:08:01;45.83;;;19.30;;
1416;SDS011;703;51.162;13.574;2023-04-08T15:10:28;46.60;;;19.40;;